createdAt,value
2019-01-27T00:00:58.686Z,7.70
2019-01-27T00:06:04.932Z,7.70
2019-01-27T00:11:11.088Z,7.70
2019-01-27T00:16:17.665Z,7.70
2019-01-27T00:21:23.720Z,7.70
2019-01-27T00:26:29.730Z,7.70
2019-01-27T00:31:35.897Z,7.60
2019-01-27T00:36:41.937Z,7.60
2019-01-27T00:41:47.867Z,7.70
2019-01-27T00:46:53.933Z,7.70
2019-01-27T00:51:59.938Z,7.70
2019-01-27T00:57:05.973Z,7.70
2019-01-27T01:02:12.044Z,7.70
2019-01-27T01:07:18.843Z,7.70
2019-01-27T01:12:24.898Z,7.70
2019-01-27T01:17:31.150Z,7.70
2019-01-27T01:22:37.356Z,7.60
2019-01-27T01:27:43.494Z,7.70
2019-01-27T01:32:49.718Z,7.70
2019-01-27T01:37:55.851Z,7.60
2019-01-27T01:43:01.955Z,7.60
2019-01-27T01:48:08.976Z,7.70
2019-01-27T01:53:15.142Z,7.60
2019-01-27T01:58:21.254Z,7.60
2019-01-27T02:03:27.433Z,7.60
2019-01-27T02:08:33.625Z,7.60
2019-01-27T02:13:39.717Z,7.60
2019-01-27T02:18:45.877Z,7.60
2019-01-27T02:23:52.100Z,7.60
2019-01-27T02:28:58.301Z,7.60
2019-01-27T02:34:04.931Z,7.60
2019-01-27T02:39:11.958Z,7.50
2019-01-27T02:44:18.062Z,7.40
2019-01-27T02:49:24.320Z,7.40
2019-01-27T02:54:30.457Z,7.40
2019-01-27T02:59:36.583Z,7.40
2019-01-27T03:04:42.912Z,7.40
2019-01-27T03:09:49.132Z,7.50
2019-01-27T03:14:55.211Z,7.50
2019-01-27T03:20:01.463Z,7.40
2019-01-27T03:25:09.683Z,7.40
2019-01-27T03:30:17.566Z,7.40
2019-01-27T03:35:23.596Z,7.50
2019-01-27T03:40:29.776Z,7.50
2019-01-27T03:45:35.857Z,7.50
2019-01-27T03:50:41.888Z,7.50
2019-01-27T03:55:48.861Z,7.50
2019-01-27T04:00:54.906Z,7.50
2019-01-27T04:06:00.934Z,7.50
2019-01-27T04:11:07.128Z,7.50
2019-01-27T04:16:13.248Z,7.50
2019-01-27T04:21:19.311Z,7.50
2019-01-27T04:26:25.536Z,7.50
2019-01-27T04:31:32.752Z,7.50
2019-01-27T04:36:38.812Z,7.40
2019-01-27T04:41:44.865Z,7.40
2019-01-27T04:46:50.986Z,7.30
2019-01-27T04:51:57.419Z,7.30
2019-01-27T04:57:03.489Z,7.30
2019-01-27T05:02:09.721Z,7.30
2019-01-27T05:07:16.773Z,7.30
2019-01-27T05:12:23.165Z,7.30
2019-01-27T05:17:29.348Z,7.30
2019-01-27T05:22:36.501Z,7.20
2019-01-27T05:27:42.532Z,7.30
2019-01-27T05:32:48.741Z,7.20
2019-01-27T05:37:55.374Z,7.10
2019-01-27T05:43:01.396Z,7.20
2019-01-27T05:48:07.957Z,7.30
2019-01-27T05:53:13.924Z,7.20
2019-01-27T05:58:19.797Z,7.20
2019-01-27T06:03:27.028Z,7.30
2019-01-27T06:08:33.147Z,7.20
2019-01-27T06:13:39.243Z,7.10
2019-01-27T06:18:45.494Z,7.20
2019-01-27T06:23:52.343Z,7.20
2019-01-27T06:28:58.421Z,7.20
2019-01-27T06:34:08.595Z,7.20
2019-01-27T06:39:17.821Z,7.20
2019-01-27T06:44:25.031Z,7.10
2019-01-27T06:49:31.462Z,7.10
2019-01-27T06:54:37.677Z,7.10
2019-01-27T07:00:12.721Z,7.00
2019-01-27T07:05:27.273Z,7.10
2019-01-27T07:10:51.023Z,7.10
2019-01-27T07:16:31.449Z,7.10
2019-01-27T07:21:44.676Z,7.00
2019-01-27T07:27:18.696Z,7.00
2019-01-27T07:32:44.450Z,7.00
2019-01-27T07:38:14.801Z,7.00
2019-01-27T07:43:38.773Z,6.90
2019-01-27T07:49:03.161Z,7.10
2019-01-27T07:54:28.937Z,6.90
2019-01-27T07:59:46.564Z,6.90
2019-01-27T08:05:02.390Z,6.90
2019-01-27T08:10:25.284Z,6.90
2019-01-27T08:15:44.063Z,6.90
2019-01-27T08:21:00.244Z,6.80
2019-01-27T08:26:33.405Z,6.90
2019-01-27T08:32:05.175Z,6.90
2019-01-27T08:37:33.432Z,6.80
2019-01-27T08:43:01.617Z,6.80
2019-01-27T08:48:08.925Z,6.80
2019-01-27T08:53:14.896Z,6.90
2019-01-27T08:58:20.860Z,6.80
2019-01-27T09:03:38.550Z,6.80
2019-01-27T09:09:09.681Z,6.90
2019-01-27T09:14:26.296Z,6.90
2019-01-27T09:19:40.137Z,6.90
2019-01-27T09:25:08.030Z,6.90
2019-01-27T09:30:30.601Z,6.90
2019-01-27T09:35:47.004Z,7.00
2019-01-27T09:41:01.036Z,7.00
2019-01-27T09:46:26.416Z,7.10
2019-01-27T09:51:58.690Z,7.20
2019-01-27T09:57:32.421Z,7.30
2019-01-27T10:02:56.280Z,7.40
2019-01-27T10:08:13.558Z,7.40
2019-01-27T10:13:41.749Z,7.40
2019-01-27T10:18:55.309Z,7.40
2019-01-27T10:24:26.486Z,7.50
2019-01-27T10:29:46.662Z,7.60
2019-01-27T10:35:18.092Z,7.70
2019-01-27T10:40:42.114Z,7.70
2019-01-27T10:46:01.954Z,7.40
2019-01-27T10:51:29.838Z,7.10
2019-01-27T10:57:04.099Z,6.90
2019-01-27T11:02:36.754Z,6.90
2019-01-27T11:07:59.060Z,6.90
2019-01-27T11:13:25.277Z,6.80
2019-01-27T11:18:50.351Z,6.70
2019-01-27T11:24:18.370Z,6.60
2019-01-27T11:29:35.586Z,6.60
2019-01-27T11:35:09.855Z,6.50
2019-01-27T11:40:37.916Z,6.50
2019-01-27T11:46:06.093Z,6.50
2019-01-27T11:51:16.879Z,6.50
2019-01-27T11:56:22.982Z,6.50
2019-01-27T12:01:28.935Z,6.30
2019-01-27T12:06:35.052Z,6.20
2019-01-27T12:11:41.069Z,6.30
2019-01-27T12:16:47.116Z,6.30
2019-01-27T12:21:53.355Z,6.30
2019-01-27T12:26:59.778Z,6.40
2019-01-27T12:32:05.875Z,6.30
2019-01-27T12:37:11.978Z,6.30
2019-01-27T12:42:18.083Z,6.40
2019-01-27T12:47:24.139Z,6.60
2019-01-27T12:52:29.996Z,6.60
2019-01-27T12:57:35.948Z,6.60
2019-01-27T13:02:41.977Z,6.60
2019-01-27T13:07:48.010Z,6.40
2019-01-27T13:12:54.180Z,6.50
2019-01-27T13:18:03.014Z,6.50
2019-01-27T13:23:09.086Z,6.60
2019-01-27T13:28:15.092Z,6.60
2019-01-27T13:33:21.104Z,6.70
2019-01-27T13:38:27.139Z,6.60
2019-01-27T13:43:33.340Z,6.60
2019-01-27T13:48:39.336Z,6.50
2019-01-27T13:53:45.970Z,6.50
2019-01-27T13:58:51.925Z,6.50
2019-01-27T14:03:58.022Z,6.50
2019-01-27T14:09:06.732Z,6.50
2019-01-27T14:14:12.672Z,6.60
2019-01-27T14:19:18.622Z,6.70
2019-01-27T14:24:24.563Z,6.80
2019-01-27T14:29:30.507Z,6.80
2019-01-27T14:34:36.534Z,6.70
2019-01-27T14:39:42.460Z,6.70
2019-01-27T14:44:48.489Z,6.70
2019-01-27T14:49:55.207Z,6.60
2019-01-27T14:55:01.296Z,6.50
2019-01-27T15:00:10.860Z,6.30
2019-01-27T15:05:17.169Z,6.30
2019-01-27T15:10:23.221Z,6.00
2019-01-27T15:15:29.269Z,5.80
2019-01-27T15:21:01.929Z,5.70
2019-01-27T15:26:10.332Z,5.60
2019-01-27T15:31:16.517Z,5.60
2019-01-27T15:36:22.456Z,5.50
2019-01-27T15:41:28.458Z,5.60
2019-01-27T15:46:34.577Z,5.70
2019-01-27T15:51:40.663Z,5.80
2019-01-27T15:56:46.602Z,5.80
2019-01-27T16:01:52.538Z,5.90
2019-01-27T16:06:58.700Z,5.90
2019-01-27T16:12:04.739Z,6.00
2019-01-27T16:17:10.748Z,6.00
2019-01-27T16:22:16.777Z,6.00
2019-01-27T16:27:22.813Z,6.00
2019-01-27T16:32:32.499Z,5.90
2019-01-27T16:37:38.561Z,5.90
2019-01-27T16:42:44.566Z,5.90
2019-01-27T16:47:50.606Z,5.90
2019-01-27T16:52:56.635Z,5.90
2019-01-27T16:58:02.661Z,5.90
2019-01-27T17:03:08.779Z,6.00
2019-01-27T17:08:14.764Z,6.00
2019-01-27T17:13:23.005Z,6.00
2019-01-27T17:18:29.057Z,6.00
2019-01-27T17:23:35.017Z,6.00
2019-01-27T17:28:41.470Z,6.00
2019-01-27T17:33:47.424Z,6.10
2019-01-27T17:38:53.536Z,6.10
2019-01-27T17:43:59.551Z,6.10
2019-01-27T17:49:05.560Z,6.10
2019-01-27T17:54:11.636Z,6.10
2019-01-27T17:59:30.206Z,6.10
2019-01-27T18:05:08.731Z,6.10
2019-01-27T18:10:36.424Z,6.10
2019-01-27T18:15:42.518Z,6.00
2019-01-27T18:20:48.532Z,5.90
2019-01-27T18:25:54.632Z,5.80
2019-01-27T18:31:00.784Z,5.80
2019-01-27T18:36:07.145Z,5.80
2019-01-27T18:41:13.190Z,5.80
2019-01-27T18:46:19.267Z,5.90
2019-01-27T18:51:25.496Z,5.90
2019-01-27T18:56:59.401Z,5.90
2019-01-27T19:02:24.794Z,6.10
2019-01-27T19:07:41.108Z,6.10
2019-01-27T19:13:02.779Z,6.10
2019-01-27T19:18:27.917Z,6.10
2019-01-27T19:23:55.775Z,6.10
2019-01-27T19:29:16.009Z,6.00
2019-01-27T19:34:50.344Z,6.00
2019-01-27T19:40:08.798Z,5.90
2019-01-27T19:45:22.651Z,5.90
2019-01-27T19:50:53.753Z,5.80
2019-01-27T19:56:31.201Z,5.80
2019-01-27T20:01:50.536Z,5.80
2019-01-27T20:07:14.630Z,5.80
2019-01-27T20:12:42.724Z,5.80
2019-01-27T20:18:25.944Z,5.80
2019-01-27T20:23:53.980Z,5.60
2019-01-27T20:29:15.041Z,5.60
2019-01-27T20:34:43.585Z,5.40
2019-01-27T20:40:20.680Z,5.40
2019-01-27T20:45:42.049Z,5.40
2019-01-27T20:51:07.140Z,5.30
2019-01-27T20:56:20.593Z,5.30
2019-01-27T21:01:42.538Z,5.30
2019-01-27T21:06:56.764Z,5.30
2019-01-27T21:12:24.861Z,5.20
2019-01-27T21:18:02.016Z,5.10
2019-01-27T21:23:08.047Z,5.10
2019-01-27T21:28:14.101Z,5.10
2019-01-27T21:33:20.209Z,5.20
2019-01-27T21:38:26.239Z,5.20
2019-01-27T21:43:32.253Z,5.30
2019-01-27T21:48:38.370Z,5.10
2019-01-27T21:53:44.468Z,5.20
2019-01-27T21:58:50.736Z,5.10
2019-01-27T22:03:56.799Z,5.20
2019-01-27T22:09:02.840Z,5.20
2019-01-27T22:14:09.840Z,5.20
2019-01-27T22:19:15.892Z,5.10
2019-01-27T22:24:21.845Z,5.20
2019-01-27T22:29:27.879Z,5.20
2019-01-27T22:34:33.918Z,5.10
2019-01-27T22:39:39.973Z,5.10
2019-01-27T22:44:45.996Z,5.00
2019-01-27T22:49:51.958Z,5.00
2019-01-27T22:54:57.927Z,5.00
2019-01-27T23:00:08.064Z,4.90
2019-01-27T23:05:15.340Z,4.80
2019-01-27T23:10:21.514Z,4.80
2019-01-27T23:15:27.561Z,4.80
2019-01-27T23:20:33.765Z,4.90
2019-01-27T23:25:39.849Z,4.90
2019-01-27T23:30:45.981Z,5.00
2019-01-27T23:35:52.092Z,5.00
2019-01-27T23:40:58.049Z,5.10
2019-01-27T23:46:04.223Z,5.10
2019-01-27T23:51:10.317Z,5.10
2019-01-27T23:56:16.345Z,5.00
